Time;durP1;ratioP1;P1;durP2;ratioP2;P2;SDS_P1;SDS_P2;PMS_P1;PMS_P2;Temp;Humidity;BMP_temperature;BMP_pressure;BME280_temperature;BME280_humidity;BME280_pressure;Samples;Min_cycle;Max_cycle;Signal;HPM_P1;HPM_P2
2021/04/03 00:00:12;;;;;;;8.93;5.38;;;8.60;76.90;;;;;;5096751;28;21015;-54
2021/04/03 00:02:38;;;;;;;6.10;5.45;;;8.20;78.00;;;;;;5114527;28;20194;-54
2021/04/03 00:05:06;;;;;;;6.70;5.78;;;8.10;77.80;;;;;;5108674;28;20598;-54
2021/04/03 00:07:32;;;;;;;7.22;5.38;;;8.10;77.50;;;;;;5102212;28;20194;-54
2021/04/03 00:09:57;;;;;;;9.57;5.50;;;8.10;77.20;;;;;;5111029;28;20571;-54
2021/04/03 00:12:23;;;;;;;8.17;5.43;;;8.30;76.90;;;;;;5109210;28;20534;-54
2021/04/03 00:14:49;;;;;;;6.87;5.47;;;7.70;76.40;;;;;;5099643;28;20229;-54
2021/04/03 00:17:14;;;;;;;5.77;4.93;;;7.80;76.60;;;;;;5107329;28;20190;-54
2021/04/03 00:19:40;;;;;;;8.57;5.27;;;7.80;77.00;;;;;;5113232;27;20790;-54
2021/04/03 00:22:06;;;;;;;7.20;4.70;;;8.10;76.90;;;;;;5103319;27;20232;-54
2021/04/03 00:24:31;;;;;;;6.23;5.17;;;7.80;77.00;;;;;;5114631;27;20175;-53
2021/04/03 00:26:57;;;;;;;8.07;5.73;;;8.20;77.50;;;;;;5101349;28;20187;-53
2021/04/03 00:29:23;;;;;;;6.90;5.13;;;7.70;77.00;;;;;;5107271;27;20198;-54
2021/04/03 00:31:48;;;;;;;8.50;5.47;;;8.00;77.50;;;;;;5107542;28;20203;-53
2021/04/03 00:34:14;;;;;;;5.77;5.20;;;8.00;76.90;;;;;;5107858;27;20578;-53
2021/04/03 00:36:40;;;;;;;9.73;6.13;;;8.10;76.80;;;;;;5108475;27;20228;-53
2021/04/03 00:39:06;;;;;;;7.80;6.30;;;7.80;75.90;;;;;;5110992;27;20547;-54
2021/04/03 00:41:32;;;;;;;7.40;6.00;;;7.90;75.10;;;;;;5104398;28;20531;-54
2021/04/03 00:43:58;;;;;;;6.80;5.60;;;8.10;74.70;;;;;;5103999;27;20209;-53
2021/04/03 00:46:23;;;;;;;6.43;5.40;;;8.10;74.50;;;;;;5125043;27;20523;-54
2021/04/03 00:48:49;;;;;;;5.90;5.30;;;7.90;74.10;;;;;;5115001;27;20573;-54
2021/04/03 00:51:14;;;;;;;6.00;5.27;;;8.10;73.80;;;;;;5101891;27;20698;-54
2021/04/03 00:53:40;;;;;;;8.77;5.40;;;8.20;73.60;;;;;;5105673;28;20262;-54
2021/04/03 00:56:07;;;;;;;9.80;5.80;;;7.90;73.40;;;;;;5102081;27;20722;-54
2021/04/03 00:58:33;;;;;;;5.80;4.97;;;8.10;73.90;;;;;;5109962;27;20203;-54
2021/04/03 01:01:00;;;;;;;7.53;5.30;;;7.60;73.80;;;;;;5118958;27;20324;-54
2021/04/03 01:03:25;;;;;;;5.78;5.10;;;8.00;74.40;;;;;;5101480;27;20184;-53
2021/04/03 01:05:52;;;;;;;4.97;4.50;;;7.80;73.80;;;;;;5113075;27;20190;-54
2021/04/03 01:08:17;;;;;;;7.10;5.22;;;7.90;73.30;;;;;;5110673;28;20171;-54
2021/04/03 01:10:53;;;;;;;6.93;5.63;;;7.80;73.00;;;;;;5110733;27;20560;-54
2021/04/03 01:13:31;;;;;;;5.20;4.15;;;7.70;72.70;;;;;;5101428;28;20175;-54
2021/04/03 01:16:12;;;;;;;6.10;4.82;;;8.10;72.90;;;;;;5106629;27;20334;-54
2021/04/03 01:18:57;;;;;;;6.10;5.00;;;7.70;72.70;;;;;;5108580;27;20273;-54
2021/04/03 01:21:59;;;;;;;6.25;4.95;;;7.80;73.20;;;;;;5105550;28;20231;-54
2021/04/03 01:24:56;;;;;;;6.95;5.07;;;7.90;72.70;;;;;;5102990;27;20176;-54
2021/04/03 01:27:24;;;;;;;8.48;4.80;;;7.80;72.50;;;;;;5105930;27;20243;-54
2021/04/03 01:30:03;;;;;;;5.22;4.40;;;7.70;72.90;;;;;;5100145;27;20574;-54
2021/04/03 01:32:52;;;;;;;8.40;4.53;;;7.60;72.90;;;;;;5112920;27;20181;-54
2021/04/03 01:35:22;;;;;;;7.10;5.45;;;7.60;72.90;;;;;;5087053;27;20673;-54
2021/04/03 01:37:54;;;;;;;6.55;4.93;;;7.80;72.20;;;;;;5107208;27;20405;-54
2021/04/03 01:40:22;;;;;;;5.20;4.65;;;7.90;72.10;;;;;;5112318;27;20203;-54
2021/04/03 01:43:04;;;;;;;6.93;4.60;;;7.90;72.20;;;;;;5102759;27;20695;-54
2021/04/03 01:45:30;;;;;;;6.63;5.10;;;7.30;71.80;;;;;;5110125;28;20553;-54
2021/04/03 01:47:58;;;;;;;12.57;6.00;;;7.60;72.70;;;;;;5108857;27;20209;-54
2021/04/03 01:50:24;;;;;;;9.30;5.15;;;7.50;72.70;;;;;;5105810;28;20203;-53
2021/04/03 01:52:50;;;;;;;7.78;4.88;;;7.50;73.00;;;;;;5093830;27;20653;-54
2021/04/03 01:55:17;;;;;;;7.35;4.55;;;7.80;73.10;;;;;;5103860;27;20546;-54
2021/04/03 01:57:50;;;;;;;7.35;4.80;;;7.80;72.70;;;;;;5108461;28;20206;-54
2021/04/03 02:00:20;;;;;;;5.72;5.05;;;8.00;72.90;;;;;;5104683;27;20255;-54
2021/04/03 02:02:47;;;;;;;6.65;4.68;;;7.50;72.80;;;;;;5113548;27;20195;-54
2021/04/03 02:05:14;;;;;;;6.05;5.03;;;7.60;72.90;;;;;;5113831;27;20179;-54
2021/04/03 02:07:43;;;;;;;6.70;4.80;;;7.70;72.90;;;;;;5107630;28;20187;-55
2021/04/03 02:10:11;;;;;;;7.10;4.78;;;7.30;73.10;;;;;;5108022;27;20253;-54
2021/04/03 02:12:40;;;;;;;8.00;4.40;;;7.40;73.70;;;;;;5104208;28;20546;-54
2021/04/03 02:15:08;;;;;;;6.30;5.22;;;7.30;74.60;;;;;;5105661;27;20217;-54
2021/04/03 02:17:36;;;;;;;7.38;5.10;;;7.10;75.30;;;;;;5100984;28;20246;-54
2021/04/03 02:20:04;;;;;;;8.32;6.55;;;7.40;77.20;;;;;;5100673;27;20214;-55
2021/04/03 02:22:31;;;;;;;9.25;5.68;;;7.30;76.00;;;;;;5108347;27;20654;-54
2021/04/03 02:24:57;;;;;;;7.32;4.90;;;7.50;76.90;;;;;;5099584;27;20184;-54
2021/04/03 02:27:22;;;;;;;6.20;4.40;;;7.30;77.10;;;;;;5119264;27;20202;-54
2021/04/03 02:29:48;;;;;;;6.97;4.90;;;7.10;77.20;;;;;;5105398;27;20662;-54
2021/04/03 02:32:14;;;;;;;7.80;5.30;;;7.20;77.50;;;;;;5101488;27;20175;-54
2021/04/03 02:34:39;;;;;;;5.83;4.43;;;7.60;77.10;;;;;;5099798;28;20176;-54
2021/04/03 02:37:05;;;;;;;7.90;5.20;;;7.50;77.10;;;;;;5101160;28;20168;-54
2021/04/03 02:39:31;;;;;;;7.20;4.83;;;7.40;76.30;;;;;;5107117;27;20359;-54
2021/04/03 02:42:11;;;;;;;10.03;4.83;;;7.60;76.50;;;;;;5108390;27;20432;-54
2021/04/03 02:44:47;;;;;;;10.40;4.95;;;7.50;76.30;;;;;;5107899;27;20451;-54
2021/04/03 02:47:16;;;;;;;5.38;4.55;;;7.50;75.20;;;;;;5100216;27;20193;-55
2021/04/03 02:49:48;;;;;;;11.05;5.40;;;7.70;75.50;;;;;;5121394;27;20289;-54
2021/04/03 02:52:15;;;;;;;5.10;4.60;;;7.50;75.30;;;;;;5101030;27;20304;-54
2021/04/03 02:54:42;;;;;;;6.60;5.00;;;7.70;75.00;;;;;;5119601;27;20588;-54
2021/04/03 02:57:10;;;;;;;8.68;4.95;;;7.60;74.80;;;;;;5100149;27;20276;-54
2021/04/03 02:59:43;;;;;;;4.97;4.53;;;7.50;74.60;;;;;;5103751;27;20194;-54
2021/04/03 03:02:09;;;;;;;5.35;4.85;;;7.40;74.60;;;;;;5100473;28;20184;-54
2021/04/03 03:04:38;;;;;;;7.43;4.53;;;7.60;74.90;;;;;;5101825;27;20210;-54
2021/04/03 03:07:07;;;;;;;7.22;4.22;;;7.40;74.70;;;;;;5103611;27;20171;-54
2021/04/03 03:09:33;;;;;;;5.82;4.28;;;7.10;73.90;;;;;;5102433;27;20281;-54
2021/04/03 03:12:00;;;;;;;6.30;3.88;;;7.30;74.30;;;;;;5119235;27;20179;-54
2021/04/03 03:14:26;;;;;;;5.75;3.90;;;7.40;74.10;;;;;;5108150;27;20232;-54
2021/04/03 03:16:54;;;;;;;6.55;4.15;;;7.20;74.20;;;;;;5109904;27;20194;-55
2021/04/03 03:19:21;;;;;;;5.47;4.13;;;7.50;74.50;;;;;;5102836;28;20199;-54
2021/04/03 03:21:47;;;;;;;5.07;3.90;;;7.40;74.30;;;;;;5124541;27;20209;-55
2021/04/03 03:24:14;;;;;;;4.85;4.15;;;7.50;74.10;;;;;;5103225;27;20640;-55
2021/04/03 03:26:40;;;;;;;4.30;3.90;;;7.40;74.70;;;;;;5111127;27;20590;-55
2021/04/03 03:29:12;;;;;;;6.97;4.00;;;7.50;75.20;;;;;;5105630;28;20204;-54
2021/04/03 03:31:41;;;;;;;5.13;4.00;;;7.30;73.60;;;;;;5102327;27;20671;-55
2021/04/03 03:34:08;;;;;;;5.15;4.65;;;7.50;75.10;;;;;;5111370;27;20179;-54
2021/04/03 03:36:36;;;;;;;8.45;4.30;;;7.30;73.90;;;;;;5126124;27;20632;-54
2021/04/03 03:39:04;;;;;;;6.30;3.95;;;7.30;74.30;;;;;;5095224;27;20216;-54
2021/04/03 03:41:30;;;;;;;4.65;4.13;;;7.20;75.00;;;;;;5130113;27;20218;-54
2021/04/03 03:43:56;;;;;;;6.97;4.95;;;7.00;74.50;;;;;;5109227;28;20183;-55
2021/04/03 03:46:22;;;;;;;6.23;4.20;;;7.00;74.90;;;;;;5108206;28;20222;-55
2021/04/03 03:48:48;;;;;;;5.37;4.20;;;7.20;75.20;;;;;;5099363;28;20467;-53
2021/04/03 03:51:13;;;;;;;5.20;4.17;;;7.20;74.30;;;;;;5099761;28;20191;-55
2021/04/03 03:53:39;;;;;;;8.33;4.67;;;7.40;74.60;;;;;;5098192;28;20187;-53
2021/04/03 03:56:05;;;;;;;5.60;3.55;;;7.40;75.20;;;;;;5099924;28;20190;-53
2021/04/03 03:58:37;;;;;;;4.37;3.97;;;7.00;74.90;;;;;;5106727;28;20206;-53
2021/04/03 04:01:03;;;;;;;4.80;3.97;;;6.90;75.00;;;;;;5104807;28;20436;-53
2021/04/03 04:03:28;;;;;;;6.53;4.00;;;6.90;75.30;;;;;;5113596;27;20589;-53
2021/04/03 04:05:54;;;;;;;4.73;4.07;;;7.00;75.30;;;;;;5105180;28;20182;-53
2021/04/03 04:08:20;;;;;;;4.13;3.63;;;7.10;75.80;;;;;;5107957;28;20207;-53
2021/04/03 04:10:46;;;;;;;4.28;3.55;;;7.00;76.00;;;;;;5105077;28;20219;-53
2021/04/03 04:13:11;;;;;;;5.00;3.70;;;7.20;76.50;;;;;;5105472;28;20227;-53
2021/04/03 04:15:37;;;;;;;4.50;4.10;;;6.70;77.20;;;;;;5099734;28;20553;-53
2021/04/03 04:18:03;;;;;;;6.27;4.50;;;6.90;77.40;;;;;;5101277;28;20172;-54
2021/04/03 04:20:29;;;;;;;6.45;4.60;;;6.60;78.00;;;;;;5107736;28;20437;-54
2021/04/03 04:22:55;;;;;;;5.90;4.43;;;6.80;78.70;;;;;;5111321;28;20186;-53
2021/04/03 04:25:21;;;;;;;5.87;4.30;;;6.60;79.40;;;;;;5109732;28;20855;-53
2021/04/03 04:27:47;;;;;;;7.72;4.88;;;6.80;80.30;;;;;;5110477;28;20424;-54
2021/04/03 04:30:13;;;;;;;6.87;4.13;;;6.80;80.30;;;;;;5109542;28;20623;-53
2021/04/03 04:32:40;;;;;;;7.43;4.63;;;6.40;79.40;;;;;;5109275;28;20170;-54
2021/04/03 04:35:09;;;;;;;6.63;4.05;;;6.40;80.10;;;;;;5106518;28;20183;-54
2021/04/03 04:37:35;;;;;;;6.70;4.70;;;6.30;80.40;;;;;;5104987;28;20188;-53
2021/04/03 04:40:02;;;;;;;6.30;4.03;;;6.40;80.80;;;;;;5090142;28;20218;-54
2021/04/03 04:42:28;;;;;;;6.35;4.03;;;6.40;80.80;;;;;;5098207;28;20180;-53
2021/04/03 04:44:54;;;;;;;8.30;5.03;;;6.50;80.80;;;;;;5103831;28;20281;-54
2021/04/03 04:47:19;;;;;;;6.53;4.10;;;6.60;80.70;;;;;;5108732;28;20191;-53
2021/04/03 04:49:45;;;;;;;5.23;4.50;;;6.40;80.60;;;;;;5109701;28;20202;-53
2021/04/03 04:52:10;;;;;;;7.93;4.30;;;6.70;80.90;;;;;;5110246;28;20404;-54
2021/04/03 04:54:36;;;;;;;8.10;4.47;;;6.60;80.20;;;;;;5109479;28;20648;-54
2021/04/03 04:57:02;;;;;;;5.23;4.23;;;6.50;80.70;;;;;;5110393;28;20175;-54
2021/04/03 04:59:28;;;;;;;7.82;4.93;;;6.60;81.50;;;;;;5109227;28;20294;-54
2021/04/03 05:01:53;;;;;;;5.70;4.23;;;6.20;81.50;;;;;;5124421;28;20683;-53
2021/04/03 05:04:19;;;;;;;12.63;4.90;;;6.50;82.40;;;;;;5109970;27;20181;-53
2021/04/03 05:06:44;;;;;;;5.43;4.83;;;6.20;81.50;;;;;;5128074;27;20183;-54
2021/04/03 05:09:10;;;;;;;6.23;4.00;;;6.40;82.50;;;;;;5099157;27;20596;-54
2021/04/03 05:11:36;;;;;;;8.70;4.50;;;6.30;82.10;;;;;;5113391;27;20281;-53
2021/04/03 05:14:02;;;;;;;4.80;3.70;;;6.50;82.50;;;;;;5097493;27;20445;-53
2021/04/03 05:16:28;;;;;;;5.87;4.20;;;6.30;82.10;;;;;;5104154;27;20452;-53
2021/04/03 05:18:53;;;;;;;6.17;5.00;;;6.30;82.30;;;;;;5112519;27;20496;-53
2021/04/03 05:21:19;;;;;;;6.50;4.20;;;6.30;82.10;;;;;;5102015;27;20238;-53
2021/04/03 05:23:46;;;;;;;6.57;4.95;;;6.70;82.20;;;;;;5106544;27;20218;-53
2021/04/03 05:26:11;;;;;;;6.60;4.83;;;6.50;81.80;;;;;;5123326;27;20183;-53
2021/04/03 05:28:37;;;;;;;5.70;4.40;;;6.70;82.40;;;;;;5126132;27;20245;-52
2021/04/03 05:31:03;;;;;;;5.60;4.00;;;6.80;81.80;;;;;;5105927;27;20714;-52
2021/04/03 05:33:28;;;;;;;7.43;4.07;;;6.60;81.20;;;;;;5109796;27;20232;-52
2021/04/03 05:35:54;;;;;;;5.57;3.73;;;6.90;81.60;;;;;;5101452;27;20209;-52
2021/04/03 05:38:20;;;;;;;5.27;4.37;;;6.70;80.60;;;;;;5099935;27;20255;-49
2021/04/03 05:40:45;;;;;;;8.73;4.10;;;7.30;81.10;;;;;;5102007;27;20187;-49
2021/04/03 05:43:14;;;;;;;7.80;4.40;;;6.90;80.60;;;;;;5100278;27;20682;-50
2021/04/03 05:45:42;;;;;;;7.28;4.38;;;6.90;81.00;;;;;;5125940;27;20411;-50
2021/04/03 05:48:08;;;;;;;8.25;3.90;;;7.10;80.70;;;;;;5099422;28;20274;-50
2021/04/03 05:50:36;;;;;;;6.80;3.67;;;7.20;79.10;;;;;;5124167;27;20210;-50
2021/04/03 05:53:03;;;;;;;5.45;3.38;;;7.40;77.90;;;;;;5123147;27;20244;-51
2021/04/03 05:55:29;;;;;;;8.50;4.03;;;6.80;77.00;;;;;;5107216;27;20183;-51
2021/04/03 05:57:55;;;;;;;4.13;3.58;;;7.50;77.50;;;;;;5106995;27;20187;-51
2021/04/03 06:00:21;;;;;;;7.20;3.60;;;7.50;76.90;;;;;;5106216;27;20268;-51
2021/04/03 06:02:47;;;;;;;5.38;4.10;;;7.60;76.80;;;;;;5122060;27;20334;-50
2021/04/03 06:05:13;;;;;;;5.75;3.72;;;7.80;76.20;;;;;;5105147;27;20721;-51
2021/04/03 06:07:40;;;;;;;3.55;3.05;;;7.60;75.40;;;;;;5125366;27;20539;-52
2021/04/03 06:10:07;;;;;;;7.28;4.10;;;7.80;75.00;;;;;;5110055;27;20691;-51
2021/04/03 06:12:44;;;;;;;10.60;3.75;;;8.10;74.80;;;;;;5129623;27;20183;-52
2021/04/03 06:15:14;;;;;;;7.82;4.07;;;8.30;74.80;;;;;;5102317;28;20187;-52
2021/04/03 06:17:41;;;;;;;7.60;4.72;;;7.90;74.60;;;;;;5096718;27;20232;-51
2021/04/03 06:20:07;;;;;;;5.03;3.53;;;8.40;73.90;;;;;;5105261;28;20214;-52
2021/04/03 06:22:48;;;;;;;4.10;3.72;;;8.30;72.60;;;;;;5097817;27;20647;-49
2021/04/03 06:25:15;;;;;;;4.13;3.35;;;8.60;73.00;;;;;;5103073;27;20274;-49
2021/04/03 06:27:41;;;;;;;6.32;4.13;;;8.40;73.40;;;;;;5102563;27;20182;-50
2021/04/03 06:30:15;;;;;;;5.90;3.80;;;8.50;74.00;;;;;;5107734;27;20214;-50
2021/04/03 06:32:43;;;;;;;6.53;3.67;;;8.20;73.80;;;;;;5102136;27;20535;-55
2021/04/03 06:35:10;;;;;;;5.50;3.60;;;8.50;73.50;;;;;;5103077;27;20186;-53
2021/04/03 06:37:37;;;;;;;7.60;5.80;;;8.30;73.20;;;;;;5101494;27;20486;-54
2021/04/03 06:40:11;;;;;;;4.85;3.60;;;8.40;74.00;;;;;;5119358;27;20204;-53
2021/04/03 06:42:52;;;;;;;6.13;4.18;;;8.70;73.50;;;;;;5099674;27;20210;-51
2021/04/03 06:45:21;;;;;;;6.35;4.30;;;8.50;73.10;;;;;;5103982;27;20183;-51
2021/04/03 06:47:48;;;;;;;5.25;3.53;;;8.50;73.00;;;;;;5121876;27;20342;-51
2021/04/03 06:50:18;;;;;;;4.60;3.20;;;9.20;72.30;;;;;;5101484;27;20305;-51
2021/04/03 06:52:45;;;;;;;4.38;3.63;;;8.90;71.10;;;;;;5100830;27;20211;-51
2021/04/03 06:55:13;;;;;;;4.78;3.05;;;9.20;70.90;;;;;;5106699;27;20659;-52
2021/04/03 06:57:42;;;;;;;4.28;3.80;;;9.20;70.80;;;;;;5102809;27;20229;-51
2021/04/03 07:00:09;;;;;;;5.05;3.30;;;9.20;71.50;;;;;;5104957;27;20729;-52
2021/04/03 07:02:47;;;;;;;5.25;3.67;;;9.50;70.10;;;;;;5106260;28;20190;-52
2021/04/03 07:05:14;;;;;;;4.00;3.38;;;9.60;69.10;;;;;;5108973;27;20207;-52
2021/04/03 07:07:43;;;;;;;3.70;2.88;;;9.90;68.20;;;;;;5102985;27;20194;-51
2021/04/03 07:10:13;;;;;;;6.78;4.93;;;9.80;68.20;;;;;;5102932;28;20208;-51
2021/04/03 07:12:40;;;;;;;5.68;3.10;;;9.80;68.10;;;;;;5098741;27;20371;-52
2021/04/03 07:15:07;;;;;;;7.13;4.40;;;10.10;65.40;;;;;;5103609;28;20242;-52
2021/04/03 07:17:36;;;;;;;4.35;3.10;;;10.10;65.90;;;;;;5107622;27;20179;-53
2021/04/03 07:20:03;;;;;;;4.68;3.83;;;9.60;66.90;;;;;;5103869;28;20198;-51
2021/04/03 07:22:29;;;;;;;5.75;3.30;;;9.60;68.20;;;;;;5100053;28;20635;-52
2021/04/03 07:24:55;;;;;;;6.10;3.50;;;9.60;68.50;;;;;;5100086;27;20184;-52
2021/04/03 07:27:22;;;;;;;7.65;3.78;;;9.80;67.20;;;;;;5105119;27;20511;-52
2021/04/03 07:29:51;;;;;;;4.45;3.03;;;10.40;65.40;;;;;;5101796;27;20199;-50
2021/04/03 07:32:46;;;;;;;4.28;3.33;;;10.90;62.90;;;;;;5104024;27;20189;-56
2021/04/03 07:35:29;;;;;;;5.75;3.20;;;11.40;62.00;;;;;;5083733;27;20192;-51
2021/04/03 07:38:05;;;;;;;5.57;3.30;;;12.10;58.80;;;;;;5100953;27;20181;-55
2021/04/03 07:40:44;;;;;;;4.78;3.22;;;12.90;57.10;;;;;;5121616;27;20231;-51
2021/04/03 07:43:28;;;;;;;6.60;3.42;;;12.50;56.20;;;;;;5103843;27;20196;-55
2021/04/03 07:45:54;;;;;;;5.65;3.03;;;11.80;56.70;;;;;;5121622;27;20190;-57
2021/04/03 07:48:38;;;;;;;4.10;2.80;;;12.50;57.90;;;;;;5103575;27;20675;-54
2021/04/03 07:51:08;;;;;;;4.47;3.00;;;13.10;55.90;;;;;;5102677;27;20294;-58
2021/04/03 07:53:47;;;;;;;5.65;3.13;;;13.40;55.00;;;;;;5105996;27;20178;-58
2021/04/03 07:56:24;;;;;;;4.35;3.00;;;13.60;55.30;;;;;;5104466;28;20172;-58
2021/04/03 07:58:51;;;;;;;5.55;2.90;;;14.90;53.90;;;;;;5101592;27;20203;-57
2021/04/03 08:01:18;;;;;;;5.00;3.45;;;14.40;52.00;;;;;;5121702;27;20676;-56
2021/04/03 08:03:57;;;;;;;5.30;3.83;;;14.20;52.10;;;;;;5101264;28;21767;-56
2021/04/03 08:06:33;;;;;;;3.30;3.00;;;13.50;53.10;;;;;;5098536;28;20174;-57
2021/04/03 08:09:20;;;;;;;4.80;3.40;;;13.10;54.00;;;;;;5104576;28;20659;-56
2021/04/03 08:11:46;;;;;;;5.43;2.95;;;12.60;54.50;;;;;;5105131;28;20221;-56
2021/04/03 08:14:14;;;;;;;3.92;3.20;;;11.40;56.10;;;;;;5100972;28;20668;-61
2021/04/03 08:16:40;;;;;;;4.55;2.92;;;11.40;56.90;;;;;;5123694;27;20198;-57
2021/04/03 08:19:06;;;;;;;3.00;2.70;;;10.80;57.70;;;;;;5103488;28;20224;-56
2021/04/03 08:21:46;;;;;;;3.37;2.20;;;10.60;59.70;;;;;;5102121;28;20193;-56
2021/04/03 08:24:13;;;;;;;4.32;2.88;;;10.60;59.00;;;;;;5100786;28;20433;-56
2021/04/03 08:26:40;;;;;;;4.22;2.58;;;10.60;58.70;;;;;;5102411;28;20238;-56
2021/04/03 08:29:07;;;;;;;4.20;3.03;;;11.10;59.10;;;;;;5105534;28;20200;-56
2021/04/03 08:31:34;;;;;;;5.30;3.20;;;10.50;59.10;;;;;;5100422;28;20221;-56
2021/04/03 08:34:04;;;;;;;6.93;2.80;;;10.50;59.10;;;;;;5118452;28;20194;-56
2021/04/03 08:36:36;;;;;;;4.45;3.35;;;11.20;59.40;;;;;;5102113;28;20172;-55
2021/04/03 08:39:08;;;;;;;4.85;2.53;;;12.50;56.60;;;;;;5104620;27;20198;-57
2021/04/03 08:41:35;;;;;;;4.22;2.40;;;14.10;54.60;;;;;;5104422;27;20179;-57
2021/04/03 08:44:01;;;;;;;3.40;2.40;;;14.90;51.10;;;;;;5099335;27;20286;-57
2021/04/03 08:46:27;;;;;;;5.72;2.83;;;14.10;51.00;;;;;;5103686;27;20179;-57
2021/04/03 08:48:58;;;;;;;2.93;2.63;;;13.20;52.40;;;;;;5106283;27;20207;-56
2021/04/03 08:51:25;;;;;;;2.97;2.55;;;13.80;52.80;;;;;;5108838;27;20207;-57
2021/04/03 08:53:51;;;;;;;3.25;2.55;;;14.70;50.40;;;;;;5099511;27;20187;-57
2021/04/03 08:56:37;;;;;;;4.95;2.30;;;13.90;50.60;;;;;;5102185;27;20179;-56
2021/04/03 08:59:07;;;;;;;4.28;2.65;;;13.90;51.30;;;;;;5101477;27;20260;-56
2021/04/03 09:01:36;;;;;;;3.10;2.15;;;13.20;52.30;;;;;;5103973;27;20225;-56
2021/04/03 09:04:07;;;;;;;5.28;3.00;;;13.80;52.40;;;;;;5123500;27;20191;-59
2021/04/03 09:06:42;;;;;;;4.25;2.70;;;15.10;50.70;;;;;;5107804;27;20203;-59
2021/04/03 09:09:10;;;;;;;3.05;2.40;;;15.90;49.20;;;;;;5100221;27;20674;-58
2021/04/03 09:11:36;;;;;;;3.05;2.30;;;15.80;47.70;;;;;;5106282;27;20433;-57
2021/04/03 09:14:03;;;;;;;3.65;2.55;;;16.20;47.00;;;;;;5102749;27;20282;-57
2021/04/03 09:16:36;;;;;;;3.45;3.03;;;15.90;47.90;;;;;;5102274;27;20559;-57
2021/04/03 09:19:03;;;;;;;2.40;2.20;;;15.90;48.00;;;;;;5125671;27;20256;-57
2021/04/03 09:21:29;;;;;;;4.32;2.40;;;15.70;46.40;;;;;;5103807;27;20635;-57
2021/04/03 09:23:55;;;;;;;3.50;2.70;;;15.90;47.50;;;;;;5104502;27;21160;-57
2021/04/03 09:26:31;;;;;;;3.80;2.87;;;16.00;47.60;;;;;;5103049;27;20179;-57
2021/04/03 09:29:09;;;;;;;2.35;2.15;;;15.90;46.40;;;;;;5105764;27;20552;-57
2021/04/03 09:31:45;;;;;;;3.15;2.80;;;15.90;46.20;;;;;;5096203;27;20202;-57
2021/04/03 09:34:15;;;;;;;3.50;2.40;;;15.60;46.20;;;;;;5103289;27;20183;-57
2021/04/03 09:36:43;;;;;;;2.63;2.20;;;15.40;47.60;;;;;;5103315;27;20250;-57
2021/04/03 09:39:13;;;;;;;4.07;2.30;;;15.30;46.50;;;;;;5105309;27;20198;-57
2021/04/03 09:41:47;;;;;;;2.60;2.17;;;15.10;46.90;;;;;;5108552;27;20179;-57
2021/04/03 09:44:14;;;;;;;3.97;2.60;;;15.20;47.10;;;;;;5106464;27;20178;-57
2021/04/03 09:46:40;;;;;;;2.70;2.20;;;16.00;45.80;;;;;;5102781;27;20271;-56
2021/04/03 09:49:08;;;;;;;3.27;2.87;;;17.10;43.80;;;;;;5106140;27;20699;-56
2021/04/03 09:51:34;;;;;;;2.55;2.35;;;16.40;43.80;;;;;;5105768;27;20462;-57
2021/04/03 09:54:00;;;;;;;3.93;3.10;;;16.80;44.70;;;;;;5101892;27;20178;-58
2021/04/03 09:56:25;;;;;;;2.90;2.17;;;17.20;44.70;;;;;;5101055;27;20184;-57
2021/04/03 09:58:53;;;;;;;3.37;3.07;;;15.90;44.70;;;;;;5105740;27;20293;-56
2021/04/03 10:01:19;;;;;;;4.45;2.95;;;15.90;45.60;;;;;;5105821;27;20201;-56
2021/04/03 10:03:45;;;;;;;5.50;2.20;;;16.60;44.30;;;;;;5111900;27;20293;-56
2021/04/03 10:06:10;;;;;;;3.23;2.93;;;17.00;43.80;;;;;;5110074;27;20716;-56
2021/04/03 10:08:36;;;;;;;3.77;3.27;;;16.80;42.80;;;;;;5100881;27;20271;-56
2021/04/03 10:11:02;;;;;;;5.93;4.20;;;16.50;43.50;;;;;;5103388;27;20206;-56
2021/04/03 10:13:28;;;;;;;3.90;2.80;;;16.30;43.90;;;;;;5111192;27;20178;-56
2021/04/03 10:15:53;;;;;;;6.73;3.13;;;15.70;44.40;;;;;;5111831;27;20817;-56
2021/04/03 10:18:19;;;;;;;4.10;2.60;;;15.80;45.20;;;;;;5130331;27;20573;-56
2021/04/03 10:20:45;;;;;;;4.37;3.53;;;15.70;45.50;;;;;;5109031;27;20297;-57
2021/04/03 10:23:11;;;;;;;4.40;2.80;;;15.60;45.10;;;;;;5102363;27;20614;-57
2021/04/03 10:25:37;;;;;;;3.07;2.27;;;15.20;45.30;;;;;;5106572;27;20496;-57
2021/04/03 10:28:02;;;;;;;4.78;2.47;;;15.20;45.90;;;;;;5117536;27;20822;-56
2021/04/03 10:30:28;;;;;;;4.17;2.20;;;14.60;46.40;;;;;;5109281;27;20298;-57
2021/04/03 10:32:54;;;;;;;2.63;2.40;;;13.60;46.10;;;;;;5109222;27;20448;-56
2021/04/03 10:35:19;;;;;;;3.00;2.60;;;13.40;47.30;;;;;;5110533;27;20179;-57
2021/04/03 10:37:45;;;;;;;3.43;2.40;;;13.00;49.60;;;;;;5130315;27;20179;-57
2021/04/03 10:40:11;;;;;;;5.90;2.90;;;13.30;49.60;;;;;;5100344;27;20623;-56
2021/04/03 10:42:37;;;;;;;3.10;2.77;;;13.50;49.40;;;;;;5099132;27;20183;-57
2021/04/03 10:45:03;;;;;;;6.93;2.60;;;13.70;49.30;;;;;;5103176;27;21248;-56
2021/04/03 10:47:28;;;;;;;4.38;2.45;;;13.60;49.60;;;;;;5102062;27;20194;-54
2021/04/03 10:49:54;;;;;;;3.50;2.93;;;14.10;48.70;;;;;;5104755;27;20613;-54
2021/04/03 10:52:21;;;;;;;4.60;2.87;;;14.50;47.80;;;;;;5102254;27;20272;-53
2021/04/03 10:54:47;;;;;;;4.53;2.50;;;14.30;47.70;;;;;;5098397;27;20184;-54
2021/04/03 10:57:12;;;;;;;4.27;2.20;;;14.20;46.90;;;;;;5103602;27;20179;-54
2021/04/03 10:59:38;;;;;;;3.70;2.37;;;14.60;46.90;;;;;;5101034;27;20195;-54
2021/04/03 11:02:04;;;;;;;4.37;2.80;;;15.00;45.70;;;;;;5103288;28;20206;-54
2021/04/03 11:04:29;;;;;;;4.50;2.80;;;15.40;46.30;;;;;;5101389;27;20190;-54
2021/04/03 11:06:55;;;;;;;2.67;2.10;;;16.10;44.70;;;;;;5101694;27;20448;-54
2021/04/03 11:09:20;;;;;;;3.20;2.90;;;16.10;43.70;;;;;;5104410;27;20234;-55
2021/04/03 11:11:46;;;;;;;4.20;3.47;;;16.70;43.80;;;;;;5098329;27;20217;-54
2021/04/03 11:14:12;;;;;;;4.80;3.00;;;15.70;43.30;;;;;;5118827;27;20703;-53
2021/04/03 11:16:37;;;;;;;8.23;3.63;;;15.70;45.20;;;;;;5098400;28;20194;-53
2021/04/03 11:19:03;;;;;;;3.90;2.40;;;15.20;45.10;;;;;;5101219;27;20470;-53
2021/04/03 11:21:29;;;;;;;3.93;3.00;;;15.40;45.00;;;;;;5097666;27;21464;-53
2021/04/03 11:23:54;;;;;;;3.67;2.40;;;15.20;45.00;;;;;;5105598;27;20205;-53
2021/04/03 11:26:20;;;;;;;3.63;2.30;;;14.60;46.00;;;;;;5109786;27;20183;-54
2021/04/03 11:28:46;;;;;;;4.80;2.83;;;14.40;46.70;;;;;;5109102;27;20215;-54
2021/04/03 11:31:11;;;;;;;4.73;2.73;;;14.10;47.50;;;;;;5105707;27;20210;-54
2021/04/03 11:33:37;;;;;;;4.20;2.73;;;14.40;47.30;;;;;;5116981;27;20257;-54
2021/04/03 11:36:03;;;;;;;3.13;2.10;;;14.20;46.60;;;;;;5096771;27;20841;-56
2021/04/03 11:38:29;;;;;;;6.13;2.35;;;13.90;46.10;;;;;;5118484;27;20194;-56
2021/04/03 11:40:54;;;;;;;4.33;2.60;;;14.10;46.70;;;;;;5099502;27;20722;-57
2021/04/03 11:43:21;;;;;;;3.37;2.30;;;14.00;47.10;;;;;;5112249;27;20709;-56
2021/04/03 11:45:47;;;;;;;2.50;2.30;;;13.60;46.40;;;;;;5102479;27;20197;-55
2021/04/03 11:48:13;;;;;;;4.40;2.07;;;13.00;46.70;;;;;;5098392;27;20186;-57
2021/04/03 11:50:38;;;;;;;3.03;2.40;;;13.20;46.30;;;;;;5099967;27;20301;-56
2021/04/03 11:53:04;;;;;;;2.53;2.30;;;13.20;46.20;;;;;;5099007;28;20226;-56
2021/04/03 11:55:30;;;;;;;2.63;2.30;;;12.80;46.20;;;;;;5093977;28;20179;-56
2021/04/03 11:57:55;;;;;;;2.50;2.23;;;13.10;47.20;;;;;;5100207;27;20187;-57
2021/04/03 12:00:22;;;;;;;2.50;2.30;;;12.80;47.20;;;;;;5102090;28;20199;-55
2021/04/03 12:02:48;;;;;;;3.10;2.03;;;12.70;48.10;;;;;;5099600;28;20415;-55
2021/04/03 12:05:14;;;;;;;4.80;2.47;;;12.90;48.60;;;;;;5097319;27;20192;-57
2021/04/03 12:07:41;;;;;;;4.28;2.50;;;12.90;49.00;;;;;;5096614;28;20179;-56
2021/04/03 12:10:13;;;;;;;3.30;2.92;;;13.10;48.80;;;;;;5102599;28;20211;-54
2021/04/03 12:12:39;;;;;;;4.13;2.53;;;13.50;48.90;;;;;;5102434;27;20183;-53
2021/04/03 12:15:10;;;;;;;3.63;2.38;;;12.90;48.10;;;;;;5097907;27;20195;-55
2021/04/03 12:17:36;;;;;;;3.03;2.00;;;13.20;48.10;;;;;;5120837;27;20255;-55
2021/04/03 12:20:05;;;;;;;3.83;2.25;;;13.20;47.00;;;;;;5100308;27;20229;-53
2021/04/03 12:22:31;;;;;;;2.00;1.90;;;13.00;46.70;;;;;;5122736;27;20183;-54
2021/04/03 12:24:56;;;;;;;2.00;1.80;;;13.10;47.60;;;;;;5102457;27;20203;-54
2021/04/03 12:27:23;;;;;;;3.30;2.10;;;13.40;47.20;;;;;;5104072;27;20701;-54
2021/04/03 12:29:48;;;;;;;4.70;3.03;;;13.80;46.40;;;;;;5100047;27;20192;-53
2021/04/03 12:32:14;;;;;;;2.90;2.63;;;14.30;45.10;;;;;;5105397;27;20217;-54
2021/04/03 12:34:39;;;;;;;4.13;2.07;;;14.30;44.70;;;;;;5107531;27;20540;-54
2021/04/03 12:37:05;;;;;;;5.63;3.20;;;14.10;44.70;;;;;;5101272;27;20698;-54
2021/04/03 12:39:31;;;;;;;3.10;2.40;;;13.80;45.70;;;;;;5101315;27;20239;-54
2021/04/03 12:41:56;;;;;;;2.30;2.10;;;13.50;46.50;;;;;;5103887;27;20179;-54
2021/04/03 12:44:22;;;;;;;2.93;2.43;;;13.10;46.90;;;;;;5098658;27;20278;-53
2021/04/03 12:46:48;;;;;;;2.40;2.20;;;13.10;47.20;;;;;;5101849;27;20186;-54
2021/04/03 12:49:14;;;;;;;3.00;2.73;;;13.10;47.10;;;;;;5106744;27;20206;-54
2021/04/03 12:51:39;;;;;;;4.77;3.00;;;13.20;47.50;;;;;;5106417;27;20378;-54
2021/04/03 12:54:05;;;;;;;3.23;2.77;;;12.80;46.50;;;;;;5101709;27;20190;-54
2021/04/03 12:56:31;;;;;;;2.70;2.27;;;12.80;46.40;;;;;;5107739;27;20190;-54